Pagrindinis puslapis
METAR-TAF:

METAR-TAF

Oro uostai :

Kuritiba, Parana, Brazilija

platuma: 25-26S, ilguma: 049-16W, Aukštis: 924 m

Dabartinis oras

Ataskaita buvo paskelbta 5 valandos ir 2 minutes, ne 01:00 UTC
Vėjas 7 kt iš Rytų
Temperatūra 15°C
Drėgmė 82%
Slėgis 1023 hPa
Matomumas: 8000 m
Išsisklaidę debesys ne aukštis 900 ft
Su prošvaistėmis ne aukštis 1300 ft

METAR: SBBI 230100Z 09007KT 8000 SCT009 BKN013 15/12 Q1023

Laikas: 03:02 (06:02 UTC)

Prognozė

Ataskaita buvo paskelbta 8 valandos ir 32 minutes, ne 21:30 UTC
Prognozė galioja nuo 23 metu 00 UTC su 23 metu 12 UTC
Vėjas 5 kt iš Rytų
Matomumas 10 km arba daugiau
Su prošvaistėmis ne aukštis 800 ft
Tapsmas
nuo 23 metu 06 UTC su 23 metu 08 UTC
Matomumas: 8000 m
Su prošvaistėmis ne aukštis 400 ft
Apsiniaukę ne aukštis 600 ft

TAF: SBBI 222130Z 2300/2312 08005KT 9999 BKN008 TN13/2308Z TX16/2312Z BECMG 2306/2308 8000 BKN004 OVC006 RMK PDW

Orai ataskaitas ir orų prognozės (METAR, TAF).

turimą stotys yra geltonos ir raudonos taškus žemėlapyje.

Perkelti pele per norėdami pamatyti stoties vardą.

Tada spustelėkite, norėdami matyti oro stebėjimo ir prognozės.

Norėdami pakeisti žemėlapį: spustelėkite ant žalios mygtukų su juodo kryžiaus žemyn,; žalią mygtuką su brūkšneliu, jei norite nutolinti; arba žalių rodyklių gretimoms žemėlapius.


METAR-TAF: